sensor_id;sensor_type;location;lat;lon;timestamp;pressure;altitude;pressure_sealevel;temperature;humidity
141;BME280;65;48.778;9.160;2023-02-22T00:02:46;98448.06;;;5.50;100.00
141;BME280;65;48.778;9.160;2023-02-22T00:05:34;98447.94;;;5.53;100.00
141;BME280;65;48.778;9.160;2023-02-22T00:08:22;98443.50;;;5.55;100.00
141;BME280;65;48.778;9.160;2023-02-22T00:11:09;98451.28;;;5.57;100.00
141;BME280;65;48.778;9.160;2023-02-22T00:13:54;98446.16;;;5.54;100.00
141;BME280;65;48.778;9.160;2023-02-22T00:16:41;98448.00;;;5.52;100.00
141;BME280;65;48.778;9.160;2023-02-22T00:19:27;98441.16;;;5.48;100.00
141;BME280;65;48.778;9.160;2023-02-22T00:22:15;98438.72;;;5.43;100.00
141;BME280;65;48.778;9.160;2023-02-22T00:25:03;98438.97;;;5.37;100.00
141;BME280;65;48.778;9.160;2023-02-22T00:27:50;98441.53;;;5.38;100.00
141;BME280;65;48.778;9.160;2023-02-22T00:30:37;98435.38;;;5.39;100.00
141;BME280;65;48.778;9.160;2023-02-22T00:33:23;98437.94;;;5.41;100.00
141;BME280;65;48.778;9.160;2023-02-22T00:36:10;98433.59;;;5.40;100.00
141;BME280;65;48.778;9.160;2023-02-22T00:38:56;98434.47;;;5.40;100.00
141;BME280;65;48.778;9.160;2023-02-22T00:41:42;98437.94;;;5.41;100.00
141;BME280;65;48.778;9.160;2023-02-22T00:44:28;98438.84;;;5.40;100.00
141;BME280;65;48.778;9.160;2023-02-22T00:47:13;98443.34;;;5.36;100.00
141;BME280;65;48.778;9.160;2023-02-22T00:49:59;98433.00;;;5.33;100.00
141;BME280;65;48.778;9.160;2023-02-22T00:52:46;98431.34;;;5.31;100.00
141;BME280;65;48.778;9.160;2023-02-22T00:55:34;98434.19;;;5.25;100.00
141;BME280;65;48.778;9.160;2023-02-22T00:58:20;98430.88;;;5.20;100.00
141;BME280;65;48.778;9.160;2023-02-22T01:01:06;98424.03;;;5.16;100.00
141;BME280;65;48.778;9.160;2023-02-22T01:03:52;98415.50;;;5.11;100.00
141;BME280;65;48.778;9.160;2023-02-22T01:10:08;98420.34;;;5.21;100.00
141;BME280;65;48.778;9.160;2023-02-22T01:12:54;98422.13;;;5.21;100.00
141;BME280;65;48.778;9.160;2023-02-22T01:15:41;98416.91;;;5.19;100.00
141;BME280;65;48.778;9.160;2023-02-22T01:18:29;98414.41;;;5.16;100.00
141;BME280;65;48.778;9.160;2023-02-22T01:21:14;98407.00;;;5.04;100.00
141;BME280;65;48.778;9.160;2023-02-22T01:24:00;98407.31;;;4.96;100.00
141;BME280;65;48.778;9.160;2023-02-22T01:26:51;98408.22;;;4.95;100.00
141;BME280;65;48.778;9.160;2023-02-22T01:29:36;98403.03;;;4.94;100.00
141;BME280;65;48.778;9.160;2023-02-22T01:32:23;98418.53;;;5.00;100.00
141;BME280;65;48.778;9.160;2023-02-22T01:35:13;98411.41;;;5.03;100.00
141;BME280;65;48.778;9.160;2023-02-22T01:37:59;98409.81;;;4.99;100.00
141;BME280;65;48.778;9.160;2023-02-22T01:40:49;98399.34;;;4.99;100.00
141;BME280;65;48.778;9.160;2023-02-22T01:43:35;98406.44;;;4.96;100.00
141;BME280;65;48.778;9.160;2023-02-22T01:46:26;98403.94;;;4.93;100.00
141;BME280;65;48.778;9.160;2023-02-22T01:49:13;98394.50;;;4.89;100.00
141;BME280;65;48.778;9.160;2023-02-22T01:52:02;98390.28;;;4.85;100.00
141;BME280;65;48.778;9.160;2023-02-22T01:54:55;98378.28;;;4.79;100.00
141;BME280;65;48.778;9.160;2023-02-22T01:57:42;98385.34;;;4.77;100.00
141;BME280;65;48.778;9.160;2023-02-22T02:00:28;98385.44;;;4.74;100.00
141;BME280;65;48.778;9.160;2023-02-22T02:03:21;98376.13;;;4.67;100.00
141;BME280;65;48.778;9.160;2023-02-22T02:06:13;98369.84;;;4.71;100.00
141;BME280;65;48.778;9.160;2023-02-22T02:09:20;98370.81;;;4.68;100.00
141;BME280;65;48.778;9.160;2023-02-22T02:12:09;98366.66;;;4.63;100.00
141;BME280;65;48.778;9.160;2023-02-22T02:18:10;98364.97;;;4.60;100.00
141;BME280;65;48.778;9.160;2023-02-22T02:27:11;98353.78;;;4.57;100.00
141;BME280;65;48.778;9.160;2023-02-22T02:38:55;98346.06;;;4.77;100.00
141;BME280;65;48.778;9.160;2023-02-22T02:41:49;98344.28;;;4.78;100.00
141;BME280;65;48.778;9.160;2023-02-22T02:45:00;98340.88;;;4.75;100.00
141;BME280;65;48.778;9.160;2023-02-22T02:47:52;98336.69;;;4.71;100.00
141;BME280;65;48.778;9.160;2023-02-22T02:50:46;98332.47;;;4.67;100.00
141;BME280;65;48.778;9.160;2023-02-22T02:53:36;98331.75;;;4.62;100.00
141;BME280;65;48.778;9.160;2023-02-22T02:56:23;98329.19;;;4.61;100.00
141;BME280;65;48.778;9.160;2023-02-22T03:08:46;98310.94;;;4.59;100.00
141;BME280;65;48.778;9.160;2023-02-22T03:11:50;98309.41;;;4.54;100.00
141;BME280;65;48.778;9.160;2023-02-22T03:15:09;98307.06;;;4.46;100.00
141;BME280;65;48.778;9.160;2023-02-22T03:21:23;98310.25;;;4.54;100.00
141;BME280;65;48.778;9.160;2023-02-22T03:27:03;98305.81;;;4.56;100.00
141;BME280;65;48.778;9.160;2023-02-22T03:29:57;98300.41;;;4.61;100.00
141;BME280;65;48.778;9.160;2023-02-22T03:33:05;98295.34;;;4.56;100.00
141;BME280;65;48.778;9.160;2023-02-22T03:36:00;98293.06;;;4.47;100.00
141;BME280;65;48.778;9.160;2023-02-22T03:38:49;98294.09;;;4.43;100.00
141;BME280;65;48.778;9.160;2023-02-22T03:41:36;98295.91;;;4.41;100.00
141;BME280;65;48.778;9.160;2023-02-22T03:44:26;98298.59;;;4.39;100.00
141;BME280;65;48.778;9.160;2023-02-22T03:47:17;98290.09;;;4.33;100.00
141;BME280;65;48.778;9.160;2023-02-22T03:50:08;98290.38;;;4.25;100.00
141;BME280;65;48.778;9.160;2023-02-22T03:52:56;98292.78;;;4.31;100.00
141;BME280;65;48.778;9.160;2023-02-22T03:55:47;98298.94;;;4.30;100.00
141;BME280;65;48.778;9.160;2023-02-22T03:58:37;98301.72;;;4.26;100.00
141;BME280;65;48.778;9.160;2023-02-22T04:01:25;98302.50;;;4.28;100.00
141;BME280;65;48.778;9.160;2023-02-22T04:04:10;98294.59;;;4.29;100.00
141;BME280;65;48.778;9.160;2023-02-22T04:06:56;98299.09;;;4.26;100.00
141;BME280;65;48.778;9.160;2023-02-22T04:09:42;98297.59;;;4.19;100.00
141;BME280;65;48.778;9.160;2023-02-22T04:12:28;98296.06;;;4.13;100.00
141;BME280;65;48.778;9.160;2023-02-22T04:15:18;98296.38;;;4.04;100.00
141;BME280;65;48.778;9.160;2023-02-22T04:18:04;98302.66;;;3.98;100.00
141;BME280;65;48.778;9.160;2023-02-22T04:20:50;98295.16;;;3.89;100.00
141;BME280;65;48.778;9.160;2023-02-22T04:23:36;98286.50;;;3.87;100.00
141;BME280;65;48.778;9.160;2023-02-22T04:26:22;98286.50;;;3.87;100.00
141;BME280;65;48.778;9.160;2023-02-22T04:29:08;98286.66;;;3.83;100.00
141;BME280;65;48.778;9.160;2023-02-22T04:31:54;98288.44;;;3.82;100.00
141;BME280;65;48.778;9.160;2023-02-22T04:34:40;98285.06;;;3.78;100.00
141;BME280;65;48.778;9.160;2023-02-22T04:37:26;98294.66;;;3.78;100.00
141;BME280;65;48.778;9.160;2023-02-22T04:40:11;98300.09;;;3.72;100.00
141;BME280;65;48.778;9.160;2023-02-22T04:42:57;98292.38;;;3.69;100.00
141;BME280;65;48.778;9.160;2023-02-22T04:45:44;98297.59;;;3.69;100.00
141;BME280;65;48.778;9.160;2023-02-22T04:48:30;98295.13;;;3.64;100.00
141;BME280;65;48.778;9.160;2023-02-22T04:51:16;98289.16;;;3.61;100.00
141;BME280;65;48.778;9.160;2023-02-22T04:54:02;98292.69;;;3.60;100.00
141;BME280;65;48.778;9.160;2023-02-22T04:56:48;98290.06;;;3.60;100.00
141;BME280;65;48.778;9.160;2023-02-22T04:59:34;98295.13;;;3.64;100.00
141;BME280;65;48.778;9.160;2023-02-22T05:02:20;98284.78;;;3.61;100.00
141;BME280;65;48.778;9.160;2023-02-22T05:05:06;98288.34;;;3.59;100.00
141;BME280;65;48.778;9.160;2023-02-22T05:07:51;98284.91;;;3.58;100.00
141;BME280;65;48.778;9.160;2023-02-22T05:10:37;98283.25;;;3.56;100.00
141;BME280;65;48.778;9.160;2023-02-22T05:13:23;98285.06;;;3.54;100.00
141;BME280;65;48.778;9.160;2023-02-22T05:16:09;98292.03;;;3.53;100.00
141;BME280;65;48.778;9.160;2023-02-22T05:18:54;98275.44;;;3.54;100.00
141;BME280;65;48.778;9.160;2023-02-22T05:21:40;98272.84;;;3.54;100.00
141;BME280;65;48.778;9.160;2023-02-22T05:24:26;98272.00;;;3.54;100.00
141;BME280;65;48.778;9.160;2023-02-22T05:27:11;98266.75;;;3.54;100.00
141;BME280;65;48.778;9.160;2023-02-22T05:29:57;98270.06;;;3.59;100.00
141;BME280;65;48.778;9.160;2023-02-22T05:32:43;98264.16;;;3.78;100.00
141;BME280;65;48.778;9.160;2023-02-22T05:35:29;98258.91;;;4.03;100.00
141;BME280;65;48.778;9.160;2023-02-22T05:38:15;98267.34;;;4.58;100.00
141;BME280;65;48.778;9.160;2023-02-22T05:41:01;98252.44;;;5.27;100.00
141;BME280;65;48.778;9.160;2023-02-22T05:43:46;98255.47;;;5.38;100.00
141;BME280;65;48.778;9.160;2023-02-22T05:46:32;98252.53;;;5.46;100.00
141;BME280;65;48.778;9.160;2023-02-22T05:49:18;98250.16;;;5.40;100.00
141;BME280;65;48.778;9.160;2023-02-22T05:52:04;98249.03;;;5.46;100.00
141;BME280;65;48.778;9.160;2023-02-22T05:54:49;98248.63;;;5.34;100.00
141;BME280;65;48.778;9.160;2023-02-22T05:57:35;98256.94;;;5.24;100.00
141;BME280;65;48.778;9.160;2023-02-22T06:00:27;98247.06;;;5.08;100.00
141;BME280;65;48.778;9.160;2023-02-22T06:03:13;98250.16;;;4.96;100.00
141;BME280;65;48.778;9.160;2023-02-22T06:05:59;98249.56;;;4.90;100.00
141;BME280;65;48.778;9.160;2023-02-22T06:08:45;98243.59;;;4.86;100.00
141;BME280;65;48.778;9.160;2023-02-22T06:11:31;98248.34;;;4.76;100.00
141;BME280;65;48.778;9.160;2023-02-22T06:14:17;98243.00;;;4.80;100.00
141;BME280;65;48.778;9.160;2023-02-22T06:17:02;98243.03;;;4.78;100.00
141;BME280;65;48.778;9.160;2023-02-22T06:19:49;98241.41;;;4.75;100.00
141;BME280;65;48.778;9.160;2023-02-22T06:22:35;98244.94;;;4.74;100.00
141;BME280;65;48.778;9.160;2023-02-22T06:25:26;98253.75;;;4.72;100.00
141;BME280;65;48.778;9.160;2023-02-22T06:28:12;98253.81;;;4.70;100.00
141;BME280;65;48.778;9.160;2023-02-22T06:30:57;98258.56;;;4.83;100.00
141;BME280;65;48.778;9.160;2023-02-22T06:33:43;98261.75;;;4.91;100.00
141;BME280;65;48.778;9.160;2023-02-22T06:36:29;98257.22;;;5.16;100.00
141;BME280;65;48.778;9.160;2023-02-22T06:39:16;98261.41;;;5.22;100.00
141;BME280;65;48.778;9.160;2023-02-22T06:42:03;98258.72;;;5.23;100.00
141;BME280;65;48.778;9.160;2023-02-22T06:44:49;98260.41;;;5.24;100.00
141;BME280;65;48.778;9.160;2023-02-22T06:47:39;98258.72;;;5.23;100.00
141;BME280;65;48.778;9.160;2023-02-22T06:50:27;98272.59;;;5.25;100.00
141;BME280;65;48.778;9.160;2023-02-22T06:53:13;98275.75;;;5.33;100.00
141;BME280;65;48.778;9.160;2023-02-22T06:55:59;98272.16;;;5.36;100.00
141;BME280;65;48.778;9.160;2023-02-22T06:58:45;98274.59;;;5.40;100.00
141;BME280;65;48.778;9.160;2023-02-22T07:01:31;98281.34;;;5.46;100.00
141;BME280;65;48.778;9.160;2023-02-22T07:04:16;98281.03;;;5.54;99.73
141;BME280;65;48.778;9.160;2023-02-22T07:07:02;98267.78;;;5.57;99.75
141;BME280;65;48.778;9.160;2023-02-22T07:09:48;98278.94;;;5.62;99.53
141;BME280;65;48.778;9.160;2023-02-22T07:12:34;98275.88;;;5.72;98.65
141;BME280;65;48.778;9.160;2023-02-22T07:15:22;98278.25;;;5.79;97.99
141;BME280;65;48.778;9.160;2023-02-22T07:18:08;98282.69;;;5.77;98.12
141;BME280;65;48.778;9.160;2023-02-22T07:20:53;98286.09;;;5.58;97.99
141;BME280;65;48.778;9.160;2023-02-22T07:23:39;98282.22;;;5.67;97.68
141;BME280;65;48.778;9.160;2023-02-22T07:26:25;98290.69;;;5.73;97.78
141;BME280;65;48.778;9.160;2023-02-22T07:29:11;98277.34;;;5.80;98.07
141;BME280;65;48.778;9.160;2023-02-22T07:31:57;98285.00;;;5.84;97.67
141;BME280;65;48.778;9.160;2023-02-22T07:34:43;98286.47;;;5.91;96.42
141;BME280;65;48.778;9.160;2023-02-22T07:37:29;98282.53;;;5.81;96.55
141;BME280;65;48.778;9.160;2023-02-22T07:40:16;98288.41;;;5.86;96.05
141;BME280;65;48.778;9.160;2023-02-22T07:43:04;98286.22;;;5.97;95.51
141;BME280;65;48.778;9.160;2023-02-22T07:45:53;98302.34;;;6.09;95.38
141;BME280;65;48.778;9.160;2023-02-22T07:48:40;98298.66;;;6.13;93.60
141;BME280;65;48.778;9.160;2023-02-22T07:51:26;98298.13;;;6.25;93.68
141;BME280;65;48.778;9.160;2023-02-22T07:54:12;98299.88;;;6.45;92.58
141;BME280;65;48.778;9.160;2023-02-22T07:56:57;98295.56;;;6.62;91.74
141;BME280;65;48.778;9.160;2023-02-22T07:59:44;98301.19;;;6.74;90.39
141;BME280;65;48.778;9.160;2023-02-22T08:02:30;98305.44;;;6.76;90.84
141;BME280;65;48.778;9.160;2023-02-22T08:05:16;98302.47;;;6.84;89.26
141;BME280;65;48.778;9.160;2023-02-22T08:08:03;98306.44;;;6.92;88.96
141;BME280;65;48.778;9.160;2023-02-22T08:10:51;98303.63;;;6.97;89.58
141;BME280;65;48.778;9.160;2023-02-22T08:13:38;98294.63;;;7.20;88.58
141;BME280;65;48.778;9.160;2023-02-22T08:16:23;98296.44;;;7.37;87.76
141;BME280;65;48.778;9.160;2023-02-22T08:19:09;98295.50;;;7.20;89.07
141;BME280;65;48.778;9.160;2023-02-22T08:21:55;98294.44;;;7.42;87.61
141;BME280;65;48.778;9.160;2023-02-22T08:24:41;98291.44;;;7.49;86.63
141;BME280;65;48.778;9.160;2023-02-22T08:27:28;98292.16;;;7.53;85.93
141;BME280;65;48.778;9.160;2023-02-22T08:30:20;98297.97;;;7.59;85.41
141;BME280;65;48.778;9.160;2023-02-22T08:33:06;98294.34;;;7.79;85.18
141;BME280;65;48.778;9.160;2023-02-22T08:35:52;98295.56;;;8.07;82.75
141;BME280;65;48.778;9.160;2023-02-22T08:38:38;98287.13;;;8.00;84.17
141;BME280;65;48.778;9.160;2023-02-22T08:41:23;98285.22;;;8.21;81.85
141;BME280;65;48.778;9.160;2023-02-22T08:44:09;98288.59;;;8.06;83.18
141;BME280;65;48.778;9.160;2023-02-22T08:46:55;98289.00;;;8.15;82.70
141;BME280;65;48.778;9.160;2023-02-22T08:49:41;98289.78;;;7.83;83.33
141;BME280;65;48.778;9.160;2023-02-22T08:52:27;98281.34;;;7.93;84.29
141;BME280;65;48.778;9.160;2023-02-22T08:55:12;98287.06;;;8.02;84.10
141;BME280;65;48.778;9.160;2023-02-22T08:58:00;98291.06;;;8.09;84.11
141;BME280;65;48.778;9.160;2023-02-22T09:00:47;98279.94;;;8.21;82.23
141;BME280;65;48.778;9.160;2023-02-22T09:03:33;98283.34;;;8.23;82.33
141;BME280;65;48.778;9.160;2023-02-22T09:06:19;98283.34;;;8.40;81.06
141;BME280;65;48.778;9.160;2023-02-22T09:09:05;98282.41;;;8.41;82.08
141;BME280;65;48.778;9.160;2023-02-22T09:11:50;98281.06;;;8.50;80.95
141;BME280;65;48.778;9.160;2023-02-22T09:14:36;98277.41;;;8.52;82.23
141;BME280;65;48.778;9.160;2023-02-22T09:17:22;98279.94;;;8.87;81.15
141;BME280;65;48.778;9.160;2023-02-22T09:20:09;98279.00;;;9.19;78.53
141;BME280;65;48.778;9.160;2023-02-22T09:22:56;98284.28;;;9.35;76.58
141;BME280;65;48.778;9.160;2023-02-22T09:25:42;98285.03;;;9.22;78.56
141;BME280;65;48.778;9.160;2023-02-22T09:28:28;98279.41;;;9.43;76.77
141;BME280;65;48.778;9.160;2023-02-22T09:31:13;98279.03;;;9.65;75.74
141;BME280;65;48.778;9.160;2023-02-22T09:33:59;98283.63;;;9.62;75.94
141;BME280;65;48.778;9.160;2023-02-22T09:36:46;98278.66;;;9.71;76.32
141;BME280;65;48.778;9.160;2023-02-22T09:39:32;98271.75;;;9.85;75.78
141;BME280;65;48.778;9.160;2023-02-22T09:42:33;98273.16;;;10.20;73.99
141;BME280;65;48.778;9.160;2023-02-22T09:45:23;98271.28;;;10.36;72.87
141;BME280;65;48.778;9.160;2023-02-22T09:48:13;98268.13;;;10.45;72.41
141;BME280;65;48.778;9.160;2023-02-22T09:51:02;98267.06;;;10.62;71.75
141;BME280;65;48.778;9.160;2023-02-22T09:53:57;98265.03;;;10.94;69.97
141;BME280;65;48.778;9.160;2023-02-22T09:56:46;98267.84;;;11.20;68.63
141;BME280;65;48.778;9.160;2023-02-22T09:59:59;98262.41;;;11.35;67.29
141;BME280;65;48.778;9.160;2023-02-22T10:06:10;98266.44;;;11.41;68.53
141;BME280;65;48.778;9.160;2023-02-22T10:08:59;98265.72;;;11.52;68.50
141;BME280;65;48.778;9.160;2023-02-22T10:11:54;98262.44;;;11.48;65.65
141;BME280;65;48.778;9.160;2023-02-22T10:21:53;98245.97;;;11.84;65.84
141;BME280;65;48.778;9.160;2023-02-22T10:25:11;98243.97;;;12.13;64.65
141;BME280;65;48.778;9.160;2023-02-22T10:28:08;98242.31;;;12.38;63.15
141;BME280;65;48.778;9.160;2023-02-22T10:31:02;98244.59;;;12.67;62.39
141;BME280;65;48.778;9.160;2023-02-22T10:33:55;98242.06;;;12.79;61.88
141;BME280;65;48.778;9.160;2023-02-22T10:36:46;98242.53;;;12.96;60.49
141;BME280;65;48.778;9.160;2023-02-22T10:39:33;98236.84;;;13.14;59.86
141;BME280;65;48.778;9.160;2023-02-22T10:42:21;98236.13;;;12.75;60.25
141;BME280;65;48.778;9.160;2023-02-22T10:45:38;98229.50;;;12.93;59.67
141;BME280;65;48.778;9.160;2023-02-22T10:48:25;98227.47;;;13.57;58.12
141;BME280;65;48.778;9.160;2023-02-22T10:51:13;98225.78;;;12.96;60.75
141;BME280;65;48.778;9.160;2023-02-22T10:56:59;98220.63;;;13.66;57.43
141;BME280;65;48.778;9.160;2023-02-22T10:59:45;98215.34;;;13.77;57.40
141;BME280;65;48.778;9.160;2023-02-22T11:02:33;98214.09;;;13.70;57.87
141;BME280;65;48.778;9.160;2023-02-22T11:11:21;98207.94;;;14.05;56.83
141;BME280;65;48.778;9.160;2023-02-22T11:14:09;98206.38;;;14.13;56.44
141;BME280;65;48.778;9.160;2023-02-22T11:16:57;98213.38;;;13.68;57.69
141;BME280;65;48.778;9.160;2023-02-22T11:19:47;98205.56;;;14.35;55.79
141;BME280;65;48.778;9.160;2023-02-22T11:22:39;98203.97;;;14.21;55.98
141;BME280;65;48.778;9.160;2023-02-22T11:25:30;98206.59;;;14.45;55.51
141;BME280;65;48.778;9.160;2023-02-22T11:28:25;98202.31;;;13.85;55.98
141;BME280;65;48.778;9.160;2023-02-22T11:31:21;98194.78;;;14.03;57.06
141;BME280;65;48.778;9.160;2023-02-22T11:34:34;98183.66;;;14.09;56.39
141;BME280;65;48.778;9.160;2023-02-22T11:40:20;98186.09;;;14.35;58.31
141;BME280;65;48.778;9.160;2023-02-22T11:43:08;98180.59;;;14.60;57.83
141;BME280;65;48.778;9.160;2023-02-22T11:49:01;98176.94;;;14.61;58.13
141;BME280;65;48.778;9.160;2023-02-22T11:52:15;98166.75;;;15.32;55.34
141;BME280;65;48.778;9.160;2023-02-22T11:55:11;98160.28;;;15.45;54.82
141;BME280;65;48.778;9.160;2023-02-22T12:01:33;98172.41;;;14.95;57.19
141;BME280;65;48.778;9.160;2023-02-22T12:08:31;98151.66;;;15.21;55.27
141;BME280;65;48.778;9.160;2023-02-22T12:11:24;98139.59;;;15.17;54.44
141;BME280;65;48.778;9.160;2023-02-22T12:20:22;98148.78;;;14.59;56.58
141;BME280;65;48.778;9.160;2023-02-22T12:23:20;98145.91;;;14.50;57.65
141;BME280;65;48.778;9.160;2023-02-22T12:26:15;98148.28;;;14.65;58.52
141;BME280;65;48.778;9.160;2023-02-22T12:34:55;98141.97;;;15.63;56.10
141;BME280;65;48.778;9.160;2023-02-22T12:40:57;98135.50;;;15.87;56.17
141;BME280;65;48.778;9.160;2023-02-22T12:43:52;98128.84;;;16.23;53.31
141;BME280;65;48.778;9.160;2023-02-22T12:46:45;98130.06;;;16.49;52.66
141;BME280;65;48.778;9.160;2023-02-22T12:55:35;98126.94;;;15.83;52.98
141;BME280;65;48.778;9.160;2023-02-22T12:58:31;98119.34;;;16.39;52.10
141;BME280;65;48.778;9.160;2023-02-22T13:01:22;98124.03;;;16.57;51.12
141;BME280;65;48.778;9.160;2023-02-22T13:04:10;98119.09;;;16.83;49.10
141;BME280;65;48.778;9.160;2023-02-22T13:07:04;98119.28;;;17.00;51.92
141;BME280;65;48.778;9.160;2023-02-22T13:13:26;98126.13;;;18.09;45.69
141;BME280;65;48.778;9.160;2023-02-22T13:22:46;98111.44;;;22.42;36.09
141;BME280;65;48.778;9.160;2023-02-22T13:25:54;98111.47;;;23.66;34.11
141;BME280;65;48.778;9.160;2023-02-22T13:28:49;98104.38;;;23.43;33.81
141;BME280;65;48.778;9.160;2023-02-22T13:31:51;98113.25;;;22.03;36.39
141;BME280;65;48.778;9.160;2023-02-22T13:35:09;98102.63;;;21.85;36.20
141;BME280;65;48.778;9.160;2023-02-22T13:53:09;98096.16;;;20.55;38.84
141;BME280;65;48.778;9.160;2023-02-22T13:55:58;98092.16;;;19.19;42.91
141;BME280;65;48.778;9.160;2023-02-22T13:58:52;98092.59;;;18.42;43.98
141;BME280;65;48.778;9.160;2023-02-22T14:01:46;98099.31;;;17.72;46.94
141;BME280;65;48.778;9.160;2023-02-22T14:04:35;98102.13;;;17.03;47.31
141;BME280;65;48.778;9.160;2023-02-22T14:10:38;98096.41;;;15.66;51.04
141;BME280;65;48.778;9.160;2023-02-22T14:13:30;98101.72;;;15.13;52.59
141;BME280;65;48.778;9.160;2023-02-22T14:16:20;98099.84;;;15.25;52.32
141;BME280;65;48.778;9.160;2023-02-22T14:19:18;98096.06;;;15.60;53.87
141;BME280;65;48.778;9.160;2023-02-22T14:22:08;98095.09;;;15.81;52.24
141;BME280;65;48.778;9.160;2023-02-22T14:24:57;98091.66;;;15.70;51.83
141;BME280;65;48.778;9.160;2023-02-22T14:27:43;98096.75;;;15.41;52.72
141;BME280;65;48.778;9.160;2023-02-22T14:30:31;98097.59;;;15.41;53.38
141;BME280;65;48.778;9.160;2023-02-22T14:33:56;98097.38;;;15.33;54.58
141;BME280;65;48.778;9.160;2023-02-22T14:39:43;98103.09;;;14.42;58.15
141;BME280;65;48.778;9.160;2023-02-22T14:42:35;98100.31;;;14.44;59.26
141;BME280;65;48.778;9.160;2023-02-22T14:45:25;98100.81;;;14.49;58.58
141;BME280;65;48.778;9.160;2023-02-22T14:51:18;98100.06;;;14.58;58.92
141;BME280;65;48.778;9.160;2023-02-22T14:54:23;98092.53;;;14.74;57.94
141;BME280;65;48.778;9.160;2023-02-22T14:57:20;98097.72;;;14.76;59.17
141;BME280;65;48.778;9.160;2023-02-22T15:00:27;98099.91;;;14.71;58.47
141;BME280;65;48.778;9.160;2023-02-22T15:03:25;98100.41;;;14.65;58.51
141;BME280;65;48.778;9.160;2023-02-22T15:06:20;98091.34;;;14.67;57.30
141;BME280;65;48.778;9.160;2023-02-22T15:09:20;98101.41;;;14.52;59.75
141;BME280;65;48.778;9.160;2023-02-22T15:12:22;98098.63;;;14.43;59.01
141;BME280;65;48.778;9.160;2023-02-22T15:15:20;98105.88;;;14.52;58.43
141;BME280;65;48.778;9.160;2023-02-22T15:18:17;98108.41;;;14.20;59.83
141;BME280;65;48.778;9.160;2023-02-22T15:21:07;98093.53;;;14.17;60.20
141;BME280;65;48.778;9.160;2023-02-22T15:23:58;98096.69;;;14.11;59.75
141;BME280;65;48.778;9.160;2023-02-22T15:26:44;98093.06;;;13.90;61.90
141;BME280;65;48.778;9.160;2023-02-22T15:29:34;98097.53;;;13.89;60.78
141;BME280;65;48.778;9.160;2023-02-22T15:32:35;98096.16;;;13.73;61.88
141;BME280;65;48.778;9.160;2023-02-22T15:41:05;98099.50;;;13.52;63.59
141;BME280;65;48.778;9.160;2023-02-22T15:44:08;98091.25;;;13.33;64.94
141;BME280;65;48.778;9.160;2023-02-22T15:46:57;98093.31;;;13.29;64.28
141;BME280;65;48.778;9.160;2023-02-22T15:49:43;98100.56;;;13.15;64.53
141;BME280;65;48.778;9.160;2023-02-22T15:52:29;98098.38;;;13.09;64.92
141;BME280;65;48.778;9.160;2023-02-22T15:55:16;98100.00;;;12.98;66.87
141;BME280;65;48.778;9.160;2023-02-22T15:58:17;98101.31;;;12.93;66.92
141;BME280;65;48.778;9.160;2023-02-22T16:01:08;98089.84;;;12.92;66.66
141;BME280;65;48.778;9.160;2023-02-22T16:03:57;98100.47;;;12.92;67.31
141;BME280;65;48.778;9.160;2023-02-22T16:06:44;98109.50;;;12.90;67.70
141;BME280;65;48.778;9.160;2023-02-22T16:09:30;98100.31;;;12.83;68.34
141;BME280;65;48.778;9.160;2023-02-22T16:15:15;98109.78;;;12.74;68.83
141;BME280;65;48.778;9.160;2023-02-22T16:18:25;98112.63;;;12.71;69.17
141;BME280;65;48.778;9.160;2023-02-22T16:21:13;98113.81;;;12.67;69.04
141;BME280;65;48.778;9.160;2023-02-22T16:23:59;98111.84;;;12.58;69.82
141;BME280;65;48.778;9.160;2023-02-22T16:27:04;98107.53;;;12.44;70.66
141;BME280;65;48.778;9.160;2023-02-22T16:30:29;98109.44;;;12.42;70.98
141;BME280;65;48.778;9.160;2023-02-22T16:33:13;98111.28;;;12.29;71.68
141;BME280;65;48.778;9.160;2023-02-22T16:36:05;98111.09;;;12.19;72.18
141;BME280;65;48.778;9.160;2023-02-22T16:38:52;98106.84;;;12.04;73.28
141;BME280;65;48.778;9.160;2023-02-22T16:41:38;98119.28;;;11.91;73.33
141;BME280;65;48.778;9.160;2023-02-22T16:44:26;98114.16;;;11.75;74.94
141;BME280;65;48.778;9.160;2023-02-22T16:47:11;98111.72;;;11.59;74.93
141;BME280;65;48.778;9.160;2023-02-22T16:49:57;98113.50;;;11.46;76.82
141;BME280;65;48.778;9.160;2023-02-22T16:52:43;98116.03;;;11.35;77.21
141;BME280;65;48.778;9.160;2023-02-22T16:55:29;98124.91;;;11.34;77.72
141;BME280;65;48.778;9.160;2023-02-22T16:58:16;98118.44;;;11.25;78.09
141;BME280;65;48.778;9.160;2023-02-22T17:01:03;98123.59;;;11.14;78.51
141;BME280;65;48.778;9.160;2023-02-22T17:03:49;98119.56;;;11.08;79.16
141;BME280;65;48.778;9.160;2023-02-22T17:06:35;98114.47;;;11.05;79.88
141;BME280;65;48.778;9.160;2023-02-22T17:09:21;98125.47;;;10.99;79.20
141;BME280;65;48.778;9.160;2023-02-22T17:12:07;98124.03;;;10.94;80.48
141;BME280;65;48.778;9.160;2023-02-22T17:14:54;98133.53;;;10.84;81.73
141;BME280;65;48.778;9.160;2023-02-22T17:17:40;98134.97;;;10.75;81.08
141;BME280;65;48.778;9.160;2023-02-22T17:20:25;98132.94;;;10.66;82.26
141;BME280;65;48.778;9.160;2023-02-22T17:23:54;98141.72;;;10.66;82.30
141;BME280;65;48.778;9.160;2023-02-22T17:26:40;98147.78;;;10.54;82.19
141;BME280;65;48.778;9.160;2023-02-22T17:29:27;98152.72;;;10.46;82.59
141;BME280;65;48.778;9.160;2023-02-22T17:32:13;98159.22;;;10.40;81.13
141;BME280;65;48.778;9.160;2023-02-22T17:34:59;98161.84;;;10.26;81.82
141;BME280;65;48.778;9.160;2023-02-22T17:37:46;98162.81;;;10.25;81.96
141;BME280;65;48.778;9.160;2023-02-22T17:40:33;98167.25;;;10.25;81.74
141;BME280;65;48.778;9.160;2023-02-22T17:43:20;98167.69;;;10.17;81.45
141;BME280;65;48.778;9.160;2023-02-22T17:46:06;98170.72;;;10.25;80.10
141;BME280;65;48.778;9.160;2023-02-22T17:48:52;98175.81;;;10.28;79.42
141;BME280;65;48.778;9.160;2023-02-22T17:51:41;98173.72;;;10.19;79.89
141;BME280;65;48.778;9.160;2023-02-22T17:54:28;98173.81;;;10.18;79.83
141;BME280;65;48.778;9.160;2023-02-22T17:57:13;98174.28;;;10.10;80.04
141;BME280;65;48.778;9.160;2023-02-22T18:00:01;98171.94;;;10.05;79.56
141;BME280;65;48.778;9.160;2023-02-22T18:02:56;98164.47;;;9.98;80.53
141;BME280;65;48.778;9.160;2023-02-22T18:05:44;98167.50;;;9.92;82.17
141;BME280;65;48.778;9.160;2023-02-22T18:08:31;98174.09;;;9.85;82.12
141;BME280;65;48.778;9.160;2023-02-22T18:11:17;98165.66;;;9.78;82.67
141;BME280;65;48.778;9.160;2023-02-22T18:14:04;98169.72;;;9.69;83.25
141;BME280;65;48.778;9.160;2023-02-22T18:16:52;98169.81;;;9.68;83.53
141;BME280;65;48.778;9.160;2023-02-22T18:19:38;98178.75;;;9.65;83.33
141;BME280;65;48.778;9.160;2023-02-22T18:22:26;98166.97;;;9.71;82.93